sensor_id;sensor_type;location;lat;lon;timestamp;P1;P4;P2;P0;N10;N4;N25;N1;N05;TS
78703;SPS30;68034;51.966;5.676;2023-08-31T00:01:12;0.0;0.0;0.0;0.0;;;;1.0;60.0;
78703;SPS30;68034;51.966;5.676;2023-08-31T00:03:41;0.3;0.3;0.3;0.3;;;;1.0;60.0;
78703;SPS30;68034;51.966;5.676;2023-08-31T00:06:12;0.0;0.0;0.0;0.0;;;;1.0;59.0;
78703;SPS30;68034;51.966;5.676;2023-08-31T00:08:43;0.0;0.0;0.0;0.0;;;;1.0;59.0;
78703;SPS30;68034;51.966;5.676;2023-08-31T00:11:11;0.0;0.0;0.0;0.0;;;;1.0;60.0;
78703;SPS30;68034;51.966;5.676;2023-08-31T00:13:40;0.0;0.0;0.0;0.0;;;;1.0;60.0;
78703;SPS30;68034;51.966;5.676;2023-08-31T00:16:09;4.9;4.9;4.9;4.7;;;;1.0;61.0;
78703;SPS30;68034;51.966;5.676;2023-08-31T00:18:38;0.0;0.0;0.0;0.0;;;;1.0;61.0;
78703;SPS30;68034;51.966;5.676;2023-08-31T00:21:07;0.0;0.0;0.0;0.0;;;;1.0;61.0;
78703;SPS30;68034;51.966;5.676;2023-08-31T00:23:36;0.0;0.0;0.0;0.0;;;;1.0;62.0;
78703;SPS30;68034;51.966;5.676;2023-08-31T00:26:05;0.0;0.0;0.0;0.0;;;;1.0;62.0;
78703;SPS30;68034;51.966;5.676;2023-08-31T00:28:35;0.2;0.2;0.2;0.2;;;;1.0;62.0;
78703;SPS30;68034;51.966;5.676;2023-08-31T00:31:04;0.0;0.0;0.0;0.0;;;;1.0;62.0;
78703;SPS30;68034;51.966;5.676;2023-08-31T00:33:35;0.0;0.0;0.0;0.0;;;;1.0;62.0;
78703;SPS30;68034;51.966;5.676;2023-08-31T00:36:06;0.0;0.0;0.0;0.0;;;;1.0;62.0;
78703;SPS30;68034;51.966;5.676;2023-08-31T00:38:34;0.0;0.0;0.0;0.0;;;;1.0;62.0;
78703;SPS30;68034;51.966;5.676;2023-08-31T00:41:04;0.0;0.0;0.0;0.0;;;;1.0;62.0;
78703;SPS30;68034;51.966;5.676;2023-08-31T00:43:33;0.0;0.0;0.0;0.0;;;;1.0;62.0;
78703;SPS30;68034;51.966;5.676;2023-08-31T00:46:02;0.0;0.0;0.0;0.0;;;;1.0;62.0;
78703;SPS30;68034;51.966;5.676;2023-08-31T00:48:31;0.6;0.6;0.6;0.5;;;;1.0;62.0;
78703;SPS30;68034;51.966;5.676;2023-08-31T00:51:00;0.0;0.0;0.0;0.0;;;;1.0;62.0;
78703;SPS30;68034;51.966;5.676;2023-08-31T00:53:30;0.0;0.0;0.0;0.0;;;;1.0;62.0;
78703;SPS30;68034;51.966;5.676;2023-08-31T00:55:58;0.2;0.2;0.2;0.1;;;;1.0;62.0;
78703;SPS30;68034;51.966;5.676;2023-08-31T00:58:28;0.0;0.0;0.0;0.0;;;;1.0;62.0;
78703;SPS30;68034;51.966;5.676;2023-08-31T01:00:58;0.0;0.0;0.0;0.0;;;;1.0;62.0;
78703;SPS30;68034;51.966;5.676;2023-08-31T01:03:37;0.0;0.0;0.0;0.0;;;;1.0;62.0;
78703;SPS30;68034;51.966;5.676;2023-08-31T01:06:18;0.0;0.0;0.0;0.0;;;;1.0;62.0;
78703;SPS30;68034;51.966;5.676;2023-08-31T01:08:59;0.0;0.0;0.0;0.0;;;;1.0;63.0;
78703;SPS30;68034;51.966;5.676;2023-08-31T01:11:39;0.0;0.0;0.0;0.0;;;;1.0;63.0;
78703;SPS30;68034;51.966;5.676;2023-08-31T01:14:18;0.0;0.0;0.0;0.0;;;;1.0;63.0;
78703;SPS30;68034;51.966;5.676;2023-08-31T01:16:55;0.0;0.0;0.0;0.0;;;;1.0;63.0;
78703;SPS30;68034;51.966;5.676;2023-08-31T01:19:34;0.2;0.2;0.2;0.2;;;;1.0;64.0;
78703;SPS30;68034;51.966;5.676;2023-08-31T01:22:14;0.0;0.0;0.0;0.0;;;;1.0;64.0;
78703;SPS30;68034;51.966;5.676;2023-08-31T01:24:49;0.0;0.0;0.0;0.0;;;;1.0;65.0;
78703;SPS30;68034;51.966;5.676;2023-08-31T01:27:18;0.0;0.0;0.0;0.0;;;;1.0;66.0;
78703;SPS30;68034;51.966;5.676;2023-08-31T01:29:48;0.0;0.0;0.0;0.0;;;;1.0;67.0;
78703;SPS30;68034;51.966;5.676;2023-08-31T01:32:16;0.0;0.0;0.0;0.0;;;;1.0;69.0;
78703;SPS30;68034;51.966;5.676;2023-08-31T01:34:45;0.0;0.0;0.0;0.0;;;;1.0;71.0;
78703;SPS30;68034;51.966;5.676;2023-08-31T01:37:17;0.0;0.0;0.0;0.0;;;;1.0;73.0;
78703;SPS30;68034;51.966;5.676;2023-08-31T01:39:55;0.0;0.0;0.0;0.0;;;;1.0;75.0;
78703;SPS30;68034;51.966;5.676;2023-08-31T01:42:30;0.0;0.0;0.0;0.0;;;;1.0;78.0;
78703;SPS30;68034;51.966;5.676;2023-08-31T01:45:02;0.0;0.0;0.0;0.0;;;;1.0;81.0;
78703;SPS30;68034;51.966;5.676;2023-08-31T01:47:32;0.0;0.0;0.0;0.0;;;;1.0;83.0;
78703;SPS30;68034;51.966;5.676;2023-08-31T01:50:01;0.1;0.1;0.1;0.1;;;;1.0;85.0;
78703;SPS30;68034;51.966;5.676;2023-08-31T01:52:31;0.0;0.0;0.0;0.0;;;;1.0;85.0;
78703;SPS30;68034;51.966;5.676;2023-08-31T01:55:02;0.0;0.0;0.0;0.0;;;;1.0;86.0;
78703;SPS30;68034;51.966;5.676;2023-08-31T01:57:31;0.0;0.0;0.0;0.0;;;;1.0;87.0;
78703;SPS30;68034;51.966;5.676;2023-08-31T02:00:00;0.3;0.3;0.3;0.3;;;;1.0;87.0;
78703;SPS30;68034;51.966;5.676;2023-08-31T02:02:30;0.0;0.0;0.0;0.0;;;;1.0;87.0;
78703;SPS30;68034;51.966;5.676;2023-08-31T02:04:59;0.0;0.0;0.0;0.0;;;;1.0;86.0;
78703;SPS30;68034;51.966;5.676;2023-08-31T02:07:30;0.0;0.0;0.0;0.0;;;;1.0;84.0;
78703;SPS30;68034;51.966;5.676;2023-08-31T02:09:59;0.0;0.0;0.0;0.0;;;;1.0;82.0;
78703;SPS30;68034;51.966;5.676;2023-08-31T02:12:27;0.0;0.0;0.0;0.0;;;;1.0;81.0;
78703;SPS30;68034;51.966;5.676;2023-08-31T02:14:56;0.0;0.0;0.0;0.0;;;;1.0;79.0;
78703;SPS30;68034;51.966;5.676;2023-08-31T02:17:25;0.3;0.3;0.3;0.3;;;;1.0;78.0;
78703;SPS30;68034;51.966;5.676;2023-08-31T02:19:54;0.0;0.0;0.0;0.0;;;;1.0;76.0;
78703;SPS30;68034;51.966;5.676;2023-08-31T02:22:23;0.1;0.1;0.1;0.1;;;;1.0;75.0;
78703;SPS30;68034;51.966;5.676;2023-08-31T02:24:52;0.0;0.0;0.0;0.0;;;;1.0;75.0;
78703;SPS30;68034;51.966;5.676;2023-08-31T02:27:21;0.1;0.1;0.1;0.1;;;;1.0;75.0;
78703;SPS30;68034;51.966;5.676;2023-08-31T02:29:49;0.0;0.0;0.0;0.0;;;;1.0;75.0;
78703;SPS30;68034;51.966;5.676;2023-08-31T02:32:18;0.0;0.0;0.0;0.0;;;;1.0;74.0;
78703;SPS30;68034;51.966;5.676;2023-08-31T02:34:47;0.0;0.0;0.0;0.0;;;;1.0;74.0;
78703;SPS30;68034;51.966;5.676;2023-08-31T02:37:15;0.0;0.0;0.0;0.0;;;;1.0;73.0;
78703;SPS30;68034;51.966;5.676;2023-08-31T02:39:44;0.0;0.0;0.0;0.0;;;;1.0;72.0;
78703;SPS30;68034;51.966;5.676;2023-08-31T02:42:13;0.0;0.0;0.0;0.0;;;;1.0;72.0;
78703;SPS30;68034;51.966;5.676;2023-08-31T02:44:42;0.0;0.0;0.0;0.0;;;;1.0;72.0;
78703;SPS30;68034;51.966;5.676;2023-08-31T02:47:10;0.0;0.0;0.0;0.0;;;;1.0;72.0;
78703;SPS30;68034;51.966;5.676;2023-08-31T02:49:39;0.0;0.0;0.0;0.0;;;;1.0;72.0;
78703;SPS30;68034;51.966;5.676;2023-08-31T02:52:07;0.7;0.7;0.7;0.6;;;;1.0;72.0;
78703;SPS30;68034;51.966;5.676;2023-08-31T02:54:36;0.0;0.0;0.0;0.0;;;;1.0;72.0;
78703;SPS30;68034;51.966;5.676;2023-08-31T02:57:04;0.0;0.0;0.0;0.0;;;;1.0;72.0;
78703;SPS30;68034;51.966;5.676;2023-08-31T02:59:33;0.0;0.0;0.0;0.0;;;;1.0;71.0;
78703;SPS30;68034;51.966;5.676;2023-08-31T03:02:03;0.0;0.0;0.0;0.0;;;;1.0;70.0;
78703;SPS30;68034;51.966;5.676;2023-08-31T03:04:31;0.0;0.0;0.0;0.0;;;;1.0;70.0;
78703;SPS30;68034;51.966;5.676;2023-08-31T03:07:00;0.0;0.0;0.0;0.0;;;;1.0;69.0;
78703;SPS30;68034;51.966;5.676;2023-08-31T03:09:31;0.1;0.1;0.1;0.1;;;;1.0;68.0;
78703;SPS30;68034;51.966;5.676;2023-08-31T03:12:00;0.0;0.0;0.0;0.0;;;;1.0;66.0;
78703;SPS30;68034;51.966;5.676;2023-08-31T03:14:28;0.0;0.0;0.0;0.0;;;;1.0;66.0;
78703;SPS30;68034;51.966;5.676;2023-08-31T03:16:57;0.2;0.2;0.2;0.2;;;;1.0;65.0;
78703;SPS30;68034;51.966;5.676;2023-08-31T03:19:26;0.0;0.0;0.0;0.0;;;;1.0;65.0;
78703;SPS30;68034;51.966;5.676;2023-08-31T03:21:54;0.0;0.0;0.0;0.0;;;;1.0;65.0;
78703;SPS30;68034;51.966;5.676;2023-08-31T03:24:23;0.0;0.0;0.0;0.0;;;;1.0;65.0;
78703;SPS30;68034;51.966;5.676;2023-08-31T03:26:51;0.0;0.0;0.0;0.0;;;;1.0;64.0;
78703;SPS30;68034;51.966;5.676;2023-08-31T03:29:20;0.9;0.9;0.9;0.9;;;;1.0;63.0;
78703;SPS30;68034;51.966;5.676;2023-08-31T03:31:48;0.0;0.0;0.0;0.0;;;;1.0;63.0;
78703;SPS30;68034;51.966;5.676;2023-08-31T03:34:17;0.0;0.0;0.0;0.0;;;;1.0;63.0;
78703;SPS30;68034;51.966;5.676;2023-08-31T03:36:46;0.0;0.0;0.0;0.0;;;;1.0;63.0;
78703;SPS30;68034;51.966;5.676;2023-08-31T03:39:14;0.5;0.5;0.5;0.4;;;;1.0;63.0;
78703;SPS30;68034;51.966;5.676;2023-08-31T03:41:43;0.0;0.0;0.0;0.0;;;;1.0;62.0;
78703;SPS30;68034;51.966;5.676;2023-08-31T03:44:12;1.4;1.4;1.4;1.3;;;;1.0;61.0;
78703;SPS30;68034;51.966;5.676;2023-08-31T03:46:41;0.0;0.0;0.0;0.0;;;;1.0;59.0;
78703;SPS30;68034;51.966;5.676;2023-08-31T03:49:10;0.0;0.0;0.0;0.0;;;;1.0;58.0;
78703;SPS30;68034;51.966;5.676;2023-08-31T03:51:40;0.0;0.0;0.0;0.0;;;;1.0;58.0;
78703;SPS30;68034;51.966;5.676;2023-08-31T03:54:09;0.0;0.0;0.0;0.0;;;;1.0;58.0;
78703;SPS30;68034;51.966;5.676;2023-08-31T03:56:39;0.0;0.0;0.0;0.0;;;;1.0;58.0;
78703;SPS30;68034;51.966;5.676;2023-08-31T03:59:07;0.0;0.0;0.0;0.0;;;;1.0;58.0;
78703;SPS30;68034;51.966;5.676;2023-08-31T04:01:36;0.0;0.0;0.0;0.0;;;;1.0;58.0;
78703;SPS30;68034;51.966;5.676;2023-08-31T04:04:06;0.0;0.0;0.0;0.0;;;;1.0;58.0;
78703;SPS30;68034;51.966;5.676;2023-08-31T04:06:35;0.0;0.0;0.0;0.0;;;;1.0;59.0;
78703;SPS30;68034;51.966;5.676;2023-08-31T04:09:03;0.0;0.0;0.0;0.0;;;;1.0;60.0;
78703;SPS30;68034;51.966;5.676;2023-08-31T04:11:32;0.0;0.0;0.0;0.0;;;;1.0;61.0;
78703;SPS30;68034;51.966;5.676;2023-08-31T04:14:02;0.0;0.0;0.0;0.0;;;;1.0;61.0;
78703;SPS30;68034;51.966;5.676;2023-08-31T04:16:31;0.0;0.0;0.0;0.0;;;;1.0;61.0;
78703;SPS30;68034;51.966;5.676;2023-08-31T04:19:00;0.0;0.0;0.0;0.0;;;;1.0;62.0;
78703;SPS30;68034;51.966;5.676;2023-08-31T04:21:30;0.0;0.0;0.0;0.0;;;;1.0;62.0;
78703;SPS30;68034;51.966;5.676;2023-08-31T04:23:58;0.0;0.0;0.0;0.0;;;;1.0;62.0;
78703;SPS30;68034;51.966;5.676;2023-08-31T04:26:27;0.0;0.0;0.0;0.0;;;;1.0;63.0;
78703;SPS30;68034;51.966;5.676;2023-08-31T04:28:56;0.0;0.0;0.0;0.0;;;;1.0;64.0;
78703;SPS30;68034;51.966;5.676;2023-08-31T04:31:24;0.0;0.0;0.0;0.0;;;;1.0;64.0;
78703;SPS30;68034;51.966;5.676;2023-08-31T04:33:53;0.0;0.0;0.0;0.0;;;;1.0;65.0;
78703;SPS30;68034;51.966;5.676;2023-08-31T04:36:21;0.3;0.3;0.3;0.2;;;;1.0;66.0;
78703;SPS30;68034;51.966;5.676;2023-08-31T04:38:51;0.6;0.6;0.6;0.5;;;;1.0;69.0;
78703;SPS30;68034;51.966;5.676;2023-08-31T04:41:20;0.0;0.0;0.0;0.0;;;;1.0;70.0;
78703;SPS30;68034;51.966;5.676;2023-08-31T04:43:49;0.0;0.0;0.0;0.0;;;;1.0;72.0;
78703;SPS30;68034;51.966;5.676;2023-08-31T04:46:17;0.0;0.0;0.0;0.0;;;;1.0;73.0;
78703;SPS30;68034;51.966;5.676;2023-08-31T04:48:46;1.9;1.9;1.9;1.8;;;;2.0;74.0;
78703;SPS30;68034;51.966;5.676;2023-08-31T04:51:28;0.0;0.0;0.0;0.0;;;;2.0;76.0;
78703;SPS30;68034;51.966;5.676;2023-08-31T04:53:58;0.2;0.2;0.2;0.2;;;;2.0;78.0;
78703;SPS30;68034;51.966;5.676;2023-08-31T04:56:30;0.1;0.1;0.1;0.1;;;;2.0;81.0;
78703;SPS30;68034;51.966;5.676;2023-08-31T04:59:00;0.0;0.0;0.0;0.0;;;;2.0;82.0;
78703;SPS30;68034;51.966;5.676;2023-08-31T05:01:30;0.0;0.0;0.0;0.0;;;;2.0;83.0;
78703;SPS30;68034;51.966;5.676;2023-08-31T05:03:59;0.1;0.1;0.1;0.1;;;;2.0;85.0;
78703;SPS30;68034;51.966;5.676;2023-08-31T05:06:28;0.0;0.0;0.0;0.0;;;;2.0;86.0;
78703;SPS30;68034;51.966;5.676;2023-08-31T05:08:57;0.0;0.0;0.0;0.0;;;;2.0;90.0;
78703;SPS30;68034;51.966;5.676;2023-08-31T05:11:26;0.0;0.0;0.0;0.0;;;;2.0;94.0;
78703;SPS30;68034;51.966;5.676;2023-08-31T05:13:55;0.0;0.0;0.0;0.0;;;;2.0;97.0;
78703;SPS30;68034;51.966;5.676;2023-08-31T05:16:23;0.1;0.1;0.1;0.1;;;;2.0;100.0;
78703;SPS30;68034;51.966;5.676;2023-08-31T05:18:52;0.0;0.0;0.0;0.0;;;;2.0;102.0;
78703;SPS30;68034;51.966;5.676;2023-08-31T05:21:20;0.0;0.0;0.0;0.0;;;;2.0;102.0;
78703;SPS30;68034;51.966;5.676;2023-08-31T05:23:49;0.0;0.0;0.0;0.0;;;;2.0;102.0;
78703;SPS30;68034;51.966;5.676;2023-08-31T05:26:17;0.5;0.5;0.5;0.4;;;;2.0;102.0;
78703;SPS30;68034;51.966;5.676;2023-08-31T05:28:46;0.0;0.0;0.0;0.0;;;;2.0;101.0;
78703;SPS30;68034;51.966;5.676;2023-08-31T05:31:15;0.3;0.3;0.3;0.3;;;;2.0;102.0;
78703;SPS30;68034;51.966;5.676;2023-08-31T05:33:43;0.0;0.0;0.0;0.0;;;;2.0;104.0;
78703;SPS30;68034;51.966;5.676;2023-08-31T05:36:12;0.3;0.3;0.3;0.3;;;;2.0;104.0;
78703;SPS30;68034;51.966;5.676;2023-08-31T05:38:41;0.0;0.0;0.0;0.0;;;;2.0;103.0;
78703;SPS30;68034;51.966;5.676;2023-08-31T05:41:09;0.2;0.2;0.2;0.2;;;;2.0;101.0;
78703;SPS30;68034;51.966;5.676;2023-08-31T05:43:38;0.0;0.0;0.0;0.0;;;;2.0;99.0;
78703;SPS30;68034;51.966;5.676;2023-08-31T05:46:08;0.0;0.0;0.0;0.0;;;;2.0;97.0;
78703;SPS30;68034;51.966;5.676;2023-08-31T05:48:37;0.0;0.0;0.0;0.0;;;;2.0;96.0;
78703;SPS30;68034;51.966;5.676;2023-08-31T05:51:05;0.0;0.0;0.0;0.0;;;;2.0;95.0;
78703;SPS30;68034;51.966;5.676;2023-08-31T05:53:34;2.0;2.0;2.0;1.9;;;;2.0;94.0;
78703;SPS30;68034;51.966;5.676;2023-08-31T05:56:04;0.0;0.0;0.0;0.0;;;;2.0;94.0;
78703;SPS30;68034;51.966;5.676;2023-08-31T05:58:33;0.0;0.0;0.0;0.0;;;;2.0;92.0;
78703;SPS30;68034;51.966;5.676;2023-08-31T06:01:03;0.1;0.1;0.1;0.1;;;;2.0;91.0;
78703;SPS30;68034;51.966;5.676;2023-08-31T06:03:33;0.2;0.2;0.2;0.2;;;;2.0;91.0;
78703;SPS30;68034;51.966;5.676;2023-08-31T06:06:02;0.0;0.0;0.0;0.0;;;;2.0;90.0;
78703;SPS30;68034;51.966;5.676;2023-08-31T06:08:31;0.0;0.0;0.0;0.0;;;;2.0;90.0;
78703;SPS30;68034;51.966;5.676;2023-08-31T06:11:01;0.0;0.0;0.0;0.0;;;;2.0;91.0;
78703;SPS30;68034;51.966;5.676;2023-08-31T06:13:30;0.0;0.0;0.0;0.0;;;;2.0;91.0;
78703;SPS30;68034;51.966;5.676;2023-08-31T06:15:59;0.0;0.0;0.0;0.0;;;;2.0;92.0;
78703;SPS30;68034;51.966;5.676;2023-08-31T06:18:28;0.0;0.0;0.0;0.0;;;;2.0;94.0;
78703;SPS30;68034;51.966;5.676;2023-08-31T06:20:58;0.0;0.0;0.0;0.0;;;;2.0;95.0;
78703;SPS30;68034;51.966;5.676;2023-08-31T06:23:27;0.0;0.0;0.0;0.0;;;;2.0;95.0;
78703;SPS30;68034;51.966;5.676;2023-08-31T06:25:56;2.5;2.5;2.5;2.4;;;;2.0;96.0;
78703;SPS30;68034;51.966;5.676;2023-08-31T06:28:24;0.0;0.0;0.0;0.0;;;;2.0;96.0;
78703;SPS30;68034;51.966;5.676;2023-08-31T06:30:53;0.0;0.0;0.0;0.0;;;;2.0;97.0;
78703;SPS30;68034;51.966;5.676;2023-08-31T06:33:21;0.0;0.0;0.0;0.0;;;;2.0;97.0;
78703;SPS30;68034;51.966;5.676;2023-08-31T06:35:50;0.2;0.2;0.2;0.2;;;;3.0;97.0;
78703;SPS30;68034;51.966;5.676;2023-08-31T06:38:19;0.0;0.0;0.0;0.0;;;;3.0;97.0;
78703;SPS30;68034;51.966;5.676;2023-08-31T06:40:48;0.0;0.0;0.0;0.0;;;;3.0;98.0;
78703;SPS30;68034;51.966;5.676;2023-08-31T06:43:16;0.0;0.0;0.0;0.0;;;;3.0;98.0;
78703;SPS30;68034;51.966;5.676;2023-08-31T06:45:45;0.0;0.0;0.0;0.0;;;;3.0;97.0;
78703;SPS30;68034;51.966;5.676;2023-08-31T06:48:13;0.0;0.0;0.0;0.0;;;;3.0;97.0;
78703;SPS30;68034;51.966;5.676;2023-08-31T06:50:44;0.0;0.0;0.0;0.0;;;;3.0;96.0;
78703;SPS30;68034;51.966;5.676;2023-08-31T06:53:12;0.1;0.1;0.1;0.1;;;;3.0;95.0;
78703;SPS30;68034;51.966;5.676;2023-08-31T06:55:41;0.3;0.3;0.3;0.3;;;;3.0;95.0;
78703;SPS30;68034;51.966;5.676;2023-08-31T06:58:10;0.0;0.0;0.0;0.0;;;;3.0;95.0;
78703;SPS30;68034;51.966;5.676;2023-08-31T07:00:39;0.0;0.0;0.0;0.0;;;;3.0;95.0;
78703;SPS30;68034;51.966;5.676;2023-08-31T07:03:07;0.3;0.3;0.3;0.3;;;;3.0;95.0;
78703;SPS30;68034;51.966;5.676;2023-08-31T07:05:36;0.0;0.0;0.0;0.0;;;;3.0;95.0;
78703;SPS30;68034;51.966;5.676;2023-08-31T07:08:10;0.1;0.1;0.1;0.1;;;;3.0;95.0;
78703;SPS30;68034;51.966;5.676;2023-08-31T07:10:39;0.0;0.0;0.0;0.0;;;;3.0;97.0;
78703;SPS30;68034;51.966;5.676;2023-08-31T07:13:07;0.0;0.0;0.0;0.0;;;;3.0;99.0;
78703;SPS30;68034;51.966;5.676;2023-08-31T07:15:36;0.1;0.1;0.1;0.1;;;;3.0;100.0;
78703;SPS30;68034;51.966;5.676;2023-08-31T07:18:05;0.0;0.0;0.0;0.0;;;;3.0;100.0;
78703;SPS30;68034;51.966;5.676;2023-08-31T07:20:35;0.0;0.0;0.0;0.0;;;;3.0;98.0;
78703;SPS30;68034;51.966;5.676;2023-08-31T07:23:04;0.0;0.0;0.0;0.0;;;;3.0;96.0;
78703;SPS30;68034;51.966;5.676;2023-08-31T07:25:32;0.0;0.0;0.0;0.0;;;;3.0;96.0;
78703;SPS30;68034;51.966;5.676;2023-08-31T07:28:01;0.0;0.0;0.0;0.0;;;;3.0;96.0;
78703;SPS30;68034;51.966;5.676;2023-08-31T07:30:30;0.0;0.0;0.0;0.0;;;;3.0;97.0;
78703;SPS30;68034;51.966;5.676;2023-08-31T07:32:59;0.0;0.0;0.0;0.0;;;;3.0;98.0;
78703;SPS30;68034;51.966;5.676;2023-08-31T07:35:29;0.0;0.0;0.0;0.0;;;;3.0;99.0;
78703;SPS30;68034;51.966;5.676;2023-08-31T07:37:58;0.0;0.0;0.0;0.0;;;;3.0;99.0;
78703;SPS30;68034;51.966;5.676;2023-08-31T07:40:27;0.0;0.0;0.0;0.0;;;;3.0;99.0;
78703;SPS30;68034;51.966;5.676;2023-08-31T07:42:55;0.0;0.0;0.0;0.0;;;;3.0;99.0;
78703;SPS30;68034;51.966;5.676;2023-08-31T07:45:26;0.0;0.0;0.0;0.0;;;;3.0;99.0;
78703;SPS30;68034;51.966;5.676;2023-08-31T07:47:54;0.0;0.0;0.0;0.0;;;;3.0;99.0;
78703;SPS30;68034;51.966;5.676;2023-08-31T07:50:23;0.0;0.0;0.0;0.0;;;;3.0;99.0;
78703;SPS30;68034;51.966;5.676;2023-08-31T07:52:51;0.7;0.7;0.7;0.7;;;;3.0;99.0;
78703;SPS30;68034;51.966;5.676;2023-08-31T07:55:20;0.0;0.0;0.0;0.0;;;;3.0;99.0;
78703;SPS30;68034;51.966;5.676;2023-08-31T07:57:48;0.0;0.0;0.0;0.0;;;;3.0;100.0;
78703;SPS30;68034;51.966;5.676;2023-08-31T08:00:17;0.0;0.0;0.0;0.0;;;;3.0;101.0;
78703;SPS30;68034;51.966;5.676;2023-08-31T08:02:46;0.0;0.0;0.0;0.0;;;;3.0;101.0;
78703;SPS30;68034;51.966;5.676;2023-08-31T08:05:15;0.0;0.0;0.0;0.0;;;;3.0;102.0;
78703;SPS30;68034;51.966;5.676;2023-08-31T08:07:44;0.0;0.0;0.0;0.0;;;;3.0;103.0;
78703;SPS30;68034;51.966;5.676;2023-08-31T08:10:13;0.0;0.0;0.0;0.0;;;;3.0;105.0;
78703;SPS30;68034;51.966;5.676;2023-08-31T08:12:42;0.0;0.0;0.0;0.0;;;;3.0;105.0;
78703;SPS30;68034;51.966;5.676;2023-08-31T08:15:12;0.0;0.0;0.0;0.0;;;;3.0;106.0;
78703;SPS30;68034;51.966;5.676;2023-08-31T08:17:41;0.0;0.0;0.0;0.0;;;;3.0;107.0;
78703;SPS30;68034;51.966;5.676;2023-08-31T08:20:12;0.0;0.0;0.0;0.0;;;;3.0;108.0;
78703;SPS30;68034;51.966;5.676;2023-08-31T08:22:41;0.0;0.0;0.0;0.0;;;;3.0;109.0;
78703;SPS30;68034;51.966;5.676;2023-08-31T08:25:11;0.0;0.0;0.0;0.0;;;;3.0;110.0;
78703;SPS30;68034;51.966;5.676;2023-08-31T08:27:39;0.0;0.0;0.0;0.0;;;;3.0;111.0;
78703;SPS30;68034;51.966;5.676;2023-08-31T08:30:08;8.3;8.3;8.3;7.9;;;;3.0;116.0;
78703;SPS30;68034;51.966;5.676;2023-08-31T08:32:37;0.0;0.0;0.0;0.0;;;;3.0;123.0;
78703;SPS30;68034;51.966;5.676;2023-08-31T08:35:06;0.0;0.0;0.0;0.0;;;;3.0;129.0;
78703;SPS30;68034;51.966;5.676;2023-08-31T08:37:35;0.0;0.0;0.0;0.0;;;;3.0;136.0;
78703;SPS30;68034;51.966;5.676;2023-08-31T08:40:04;0.0;0.0;0.0;0.0;;;;3.0;146.0;
78703;SPS30;68034;51.966;5.676;2023-08-31T08:42:35;0.0;0.0;0.0;0.0;;;;3.0;149.0;
78703;SPS30;68034;51.966;5.676;2023-08-31T08:45:10;0.0;0.0;0.0;0.0;;;;3.0;154.0;
78703;SPS30;68034;51.966;5.676;2023-08-31T08:47:44;0.0;0.0;0.0;0.0;;;;3.0;161.0;
78703;SPS30;68034;51.966;5.676;2023-08-31T08:50:13;0.0;0.0;0.0;0.0;;;;3.0;165.0;
78703;SPS30;68034;51.966;5.676;2023-08-31T08:52:42;0.0;0.0;0.0;0.0;;;;3.0;171.0;
78703;SPS30;68034;51.966;5.676;2023-08-31T08:55:12;0.0;0.0;0.0;0.0;;;;3.0;174.0;
78703;SPS30;68034;51.966;5.676;2023-08-31T08:57:41;0.1;0.1;0.1;0.1;;;;3.0;177.0;
78703;SPS30;68034;51.966;5.676;2023-08-31T09:00:11;0.0;0.0;0.0;0.0;;;;3.0;182.0;
78703;SPS30;68034;51.966;5.676;2023-08-31T09:02:40;0.0;0.0;0.0;0.0;;;;3.0;184.0;
78703;SPS30;68034;51.966;5.676;2023-08-31T09:05:09;0.0;0.0;0.0;0.0;;;;3.0;186.0;
78703;SPS30;68034;51.966;5.676;2023-08-31T09:07:46;0.1;0.1;0.1;0.1;;;;3.0;189.0;
78703;SPS30;68034;51.966;5.676;2023-08-31T09:10:34;0.0;0.0;0.0;0.0;;;;3.0;189.0;
78703;SPS30;68034;51.966;5.676;2023-08-31T09:13:06;0.0;0.0;0.0;0.0;;;;3.0;193.0;
78703;SPS30;68034;51.966;5.676;2023-08-31T09:15:42;0.0;0.0;0.0;0.0;;;;3.0;198.0;
78703;SPS30;68034;51.966;5.676;2023-08-31T09:18:16;0.0;0.0;0.0;0.0;;;;3.0;202.0;
78703;SPS30;68034;51.966;5.676;2023-08-31T09:20:54;0.0;0.0;0.0;0.0;;;;3.0;207.0;
78703;SPS30;68034;51.966;5.676;2023-08-31T09:23:24;0.0;0.0;0.0;0.0;;;;3.0;210.0;
78703;SPS30;68034;51.966;5.676;2023-08-31T09:25:53;0.0;0.0;0.0;0.0;;;;3.0;210.0;
78703;SPS30;68034;51.966;5.676;2023-08-31T09:28:24;0.0;0.0;0.0;0.0;;;;3.0;208.0;
78703;SPS30;68034;51.966;5.676;2023-08-31T09:31:03;0.1;0.1;0.1;0.1;;;;3.0;207.0;
78703;SPS30;68034;51.966;5.676;2023-08-31T09:33:34;0.0;0.0;0.0;0.0;;;;2.0;203.0;
78703;SPS30;68034;51.966;5.676;2023-08-31T09:36:06;0.0;0.0;0.0;0.0;;;;2.0;199.0;
78703;SPS30;68034;51.966;5.676;2023-08-31T09:38:42;0.0;0.0;0.0;0.0;;;;2.0;196.0;
78703;SPS30;68034;51.966;5.676;2023-08-31T09:41:11;0.0;0.0;0.0;0.0;;;;2.0;192.0;
78703;SPS30;68034;51.966;5.676;2023-08-31T09:43:42;0.1;0.1;0.1;0.1;;;;2.0;193.0;
78703;SPS30;68034;51.966;5.676;2023-08-31T09:46:11;0.0;0.0;0.0;0.0;;;;2.0;193.0;
78703;SPS30;68034;51.966;5.676;2023-08-31T09:48:41;0.0;0.0;0.0;0.0;;;;2.0;193.0;
78703;SPS30;68034;51.966;5.676;2023-08-31T09:51:11;0.0;0.0;0.0;0.0;;;;2.0;196.0;
78703;SPS30;68034;51.966;5.676;2023-08-31T09:53:48;0.1;0.1;0.1;0.1;;;;2.0;197.0;
78703;SPS30;68034;51.966;5.676;2023-08-31T09:56:21;0.8;0.8;0.8;0.8;;;;2.0;196.0;
78703;SPS30;68034;51.966;5.676;2023-08-31T09:58:52;0.0;0.0;0.0;0.0;;;;2.0;184.0;
78703;SPS30;68034;51.966;5.676;2023-08-31T10:01:21;0.0;0.0;0.0;0.0;;;;2.0;180.0;
78703;SPS30;68034;51.966;5.676;2023-08-31T10:03:50;0.0;0.0;0.0;0.0;;;;2.0;179.0;
78703;SPS30;68034;51.966;5.676;2023-08-31T10:06:19;0.6;0.6;0.6;0.6;;;;2.0;179.0;
78703;SPS30;68034;51.966;5.676;2023-08-31T10:08:52;0.0;0.0;0.0;0.0;;;;2.0;171.0;
78703;SPS30;68034;51.966;5.676;2023-08-31T10:11:24;0.3;0.3;0.3;0.3;;;;2.0;170.0;
78703;SPS30;68034;51.966;5.676;2023-08-31T10:13:53;0.0;0.0;0.0;0.0;;;;2.0;165.0;
78703;SPS30;68034;51.966;5.676;2023-08-31T10:16:23;0.2;0.2;0.2;0.2;;;;2.0;158.0;
78703;SPS30;68034;51.966;5.676;2023-08-31T10:18:53;0.2;0.2;0.2;0.2;;;;2.0;162.0;
78703;SPS30;68034;51.966;5.676;2023-08-31T10:21:24;0.0;0.0;0.0;0.0;;;;2.0;162.0;
78703;SPS30;68034;51.966;5.676;2023-08-31T10:23:55;0.0;0.0;0.0;0.0;;;;2.0;153.0;
78703;SPS30;68034;51.966;5.676;2023-08-31T10:26:27;0.1;0.1;0.1;0.1;;;;2.0;153.0;
78703;SPS30;68034;51.966;5.676;2023-08-31T10:28:56;0.0;0.0;0.0;0.0;;;;1.0;153.0;
78703;SPS30;68034;51.966;5.676;2023-08-31T10:31:30;0.0;0.0;0.0;0.0;;;;1.0;152.0;
78703;SPS30;68034;51.966;5.676;2023-08-31T10:33:59;0.0;0.0;0.0;0.0;;;;1.0;147.0;
78703;SPS30;68034;51.966;5.676;2023-08-31T10:36:40;0.0;0.0;0.0;0.0;;;;1.0;147.0;
78703;SPS30;68034;51.966;5.676;2023-08-31T10:39:13;0.0;0.0;0.0;0.0;;;;1.0;149.0;
78703;SPS30;68034;51.966;5.676;2023-08-31T10:41:51;0.0;0.0;0.0;0.0;;;;1.0;152.0;
78703;SPS30;68034;51.966;5.676;2023-08-31T10:44:23;0.1;0.1;0.1;0.1;;;;1.0;161.0;
78703;SPS30;68034;51.966;5.676;2023-08-31T10:46:53;0.0;0.0;0.0;0.0;;;;1.0;175.0;
78703;SPS30;68034;51.966;5.676;2023-08-31T10:49:22;0.1;0.1;0.1;0.1;;;;1.0;180.0;
78703;SPS30;68034;51.966;5.676;2023-08-31T10:51:53;0.0;0.0;0.0;0.0;;;;1.0;191.0;
78703;SPS30;68034;51.966;5.676;2023-08-31T10:54:24;0.2;0.2;0.2;0.2;;;;1.0;201.0;
78703;SPS30;68034;51.966;5.676;2023-08-31T10:57:01;0.1;0.1;0.1;0.1;;;;1.0;209.0;
78703;SPS30;68034;51.966;5.676;2023-08-31T10:59:43;0.0;0.0;0.0;0.0;;;;1.0;219.0;
78703;SPS30;68034;51.966;5.676;2023-08-31T11:02:28;0.0;0.0;0.0;0.0;;;;1.0;234.0;
78703;SPS30;68034;51.966;5.676;2023-08-31T11:05:01;0.0;0.0;0.0;0.0;;;;1.0;233.0;
78703;SPS30;68034;51.966;5.676;2023-08-31T11:07:34;0.0;0.0;0.0;0.0;;;;1.0;238.0;
78703;SPS30;68034;51.966;5.676;2023-08-31T11:10:13;0.0;0.0;0.0;0.0;;;;1.0;239.0;
78703;SPS30;68034;51.966;5.676;2023-08-31T11:12:46;0.0;0.0;0.0;0.0;;;;1.0;235.0;
78703;SPS30;68034;51.966;5.676;2023-08-31T11:15:16;0.0;0.0;0.0;0.0;;;;1.0;236.0;
78703;SPS30;68034;51.966;5.676;2023-08-31T11:17:48;0.3;0.3;0.3;0.2;;;;1.0;233.0;
78703;SPS30;68034;51.966;5.676;2023-08-31T11:20:18;0.0;0.0;0.0;0.0;;;;1.0;229.0;
78703;SPS30;68034;51.966;5.676;2023-08-31T11:22:49;0.0;0.0;0.0;0.0;;;;1.0;227.0;
78703;SPS30;68034;51.966;5.676;2023-08-31T11:25:20;0.0;0.0;0.0;0.0;;;;1.0;226.0;
78703;SPS30;68034;51.966;5.676;2023-08-31T11:27:56;0.0;0.0;0.0;0.0;;;;1.0;225.0;
78703;SPS30;68034;51.966;5.676;2023-08-31T11:30:26;0.1;0.1;0.1;0.1;;;;1.0;224.0;
78703;SPS30;68034;51.966;5.676;2023-08-31T11:33:01;0.0;0.0;0.0;0.0;;;;1.0;225.0;
78703;SPS30;68034;51.966;5.676;2023-08-31T11:35:33;0.0;0.0;0.0;0.0;;;;1.0;228.0;
78703;SPS30;68034;51.966;5.676;2023-08-31T11:38:04;0.0;0.0;0.0;0.0;;;;1.0;236.0;
78703;SPS30;68034;51.966;5.676;2023-08-31T11:40:34;0.7;0.7;0.7;0.6;;;;1.0;240.0;
78703;SPS30;68034;51.966;5.676;2023-08-31T11:43:04;0.0;0.0;0.0;0.0;;;;1.0;243.0;
78703;SPS30;68034;51.966;5.676;2023-08-31T11:45:34;1.7;1.7;1.7;1.6;;;;1.0;249.0;
78703;SPS30;68034;51.966;5.676;2023-08-31T11:48:07;0.5;0.5;0.5;0.5;;;;1.0;246.0;
78703;SPS30;68034;51.966;5.676;2023-08-31T11:50:37;0.0;0.0;0.0;0.0;;;;1.0;246.0;
78703;SPS30;68034;51.966;5.676;2023-08-31T11:53:08;0.0;0.0;0.0;0.0;;;;1.0;250.0;
78703;SPS30;68034;51.966;5.676;2023-08-31T11:55:37;0.0;0.0;0.0;0.0;;;;1.0;253.0;
78703;SPS30;68034;51.966;5.676;2023-08-31T11:58:21;0.0;0.0;0.0;0.0;;;;1.0;255.0;
78703;SPS30;68034;51.966;5.676;2023-08-31T12:00:56;0.0;0.0;0.0;0.0;;;;1.0;259.0;
78703;SPS30;68034;51.966;5.676;2023-08-31T12:03:26;0.0;0.0;0.0;0.0;;;;1.0;262.0;
78703;SPS30;68034;51.966;5.676;2023-08-31T12:05:56;0.0;0.0;0.0;0.0;;;;1.0;263.0;
78703;SPS30;68034;51.966;5.676;2023-08-31T12:08:26;0.0;0.0;0.0;0.0;;;;1.0;265.0;
78703;SPS30;68034;51.966;5.676;2023-08-31T12:10:55;0.1;0.1;0.1;0.1;;;;1.0;265.0;
78703;SPS30;68034;51.966;5.676;2023-08-31T12:13:28;0.0;0.0;0.0;0.0;;;;1.0;265.0;
78703;SPS30;68034;51.966;5.676;2023-08-31T12:15:57;0.0;0.0;0.0;0.0;;;;1.0;270.0;
78703;SPS30;68034;51.966;5.676;2023-08-31T12:18:28;0.0;0.0;0.0;0.0;;;;1.0;271.0;
78703;SPS30;68034;51.966;5.676;2023-08-31T12:20:58;0.0;0.0;0.0;0.0;;;;1.0;273.0;
78703;SPS30;68034;51.966;5.676;2023-08-31T12:23:30;0.0;0.0;0.0;0.0;;;;1.0;274.0;